sensor_id;sensor_type;location;lat;lon;timestamp;temperature;humidity
3713;DHT22;1872;51.406;6.856;2023-03-01T00:02:02;0.70;99.90
3713;DHT22;1872;51.406;6.856;2023-03-01T00:04:30;0.80;99.90
3713;DHT22;1872;51.406;6.856;2023-03-01T00:06:56;0.70;99.90
3713;DHT22;1872;51.406;6.856;2023-03-01T00:09:21;0.80;99.90
3713;DHT22;1872;51.406;6.856;2023-03-01T00:11:47;0.80;99.90
3713;DHT22;1872;51.406;6.856;2023-03-01T00:14:14;0.80;99.90
3713;DHT22;1872;51.406;6.856;2023-03-01T00:16:42;0.80;99.90
3713;DHT22;1872;51.406;6.856;2023-03-01T00:19:26;0.80;99.90
3713;DHT22;1872;51.406;6.856;2023-03-01T00:21:52;0.80;99.90
3713;DHT22;1872;51.406;6.856;2023-03-01T00:24:18;0.70;99.90
3713;DHT22;1872;51.406;6.856;2023-03-01T00:26:44;0.70;99.90
3713;DHT22;1872;51.406;6.856;2023-03-01T00:29:09;0.70;99.90
3713;DHT22;1872;51.406;6.856;2023-03-01T00:31:35;0.80;99.90
3713;DHT22;1872;51.406;6.856;2023-03-01T00:34:03;0.80;99.90
3713;DHT22;1872;51.406;6.856;2023-03-01T00:36:32;0.80;99.90
3713;DHT22;1872;51.406;6.856;2023-03-01T00:38:58;0.80;99.90
3713;DHT22;1872;51.406;6.856;2023-03-01T00:41:24;0.80;99.90
3713;DHT22;1872;51.406;6.856;2023-03-01T00:43:52;0.80;99.90
3713;DHT22;1872;51.406;6.856;2023-03-01T00:46:20;0.80;99.90
3713;DHT22;1872;51.406;6.856;2023-03-01T00:48:46;0.80;99.90
3713;DHT22;1872;51.406;6.856;2023-03-01T00:51:15;0.80;99.90
3713;DHT22;1872;51.406;6.856;2023-03-01T00:53:42;0.70;99.90
3713;DHT22;1872;51.406;6.856;2023-03-01T00:56:09;0.70;99.90
3713;DHT22;1872;51.406;6.856;2023-03-01T00:58:35;0.70;99.90
3713;DHT22;1872;51.406;6.856;2023-03-01T01:01:08;0.70;99.90
3713;DHT22;1872;51.406;6.856;2023-03-01T01:03:43;0.70;99.90
3713;DHT22;1872;51.406;6.856;2023-03-01T01:06:14;0.70;99.90
3713;DHT22;1872;51.406;6.856;2023-03-01T01:08:39;0.60;99.90
3713;DHT22;1872;51.406;6.856;2023-03-01T01:11:05;0.60;99.90
3713;DHT22;1872;51.406;6.856;2023-03-01T01:13:33;0.60;99.90
3713;DHT22;1872;51.406;6.856;2023-03-01T01:16:02;0.60;99.90
3713;DHT22;1872;51.406;6.856;2023-03-01T01:18:28;0.60;99.90
3713;DHT22;1872;51.406;6.856;2023-03-01T01:20:54;0.50;99.90
3713;DHT22;1872;51.406;6.856;2023-03-01T01:23:22;0.50;99.90
3713;DHT22;1872;51.406;6.856;2023-03-01T01:25:48;0.50;99.90
3713;DHT22;1872;51.406;6.856;2023-03-01T01:28:13;0.50;99.90
3713;DHT22;1872;51.406;6.856;2023-03-01T01:30:39;0.50;99.90
3713;DHT22;1872;51.406;6.856;2023-03-01T01:33:05;0.50;99.90
3713;DHT22;1872;51.406;6.856;2023-03-01T01:35:30;0.50;99.90
3713;DHT22;1872;51.406;6.856;2023-03-01T01:37:56;0.50;99.90
3713;DHT22;1872;51.406;6.856;2023-03-01T01:40:21;0.50;99.90
3713;DHT22;1872;51.406;6.856;2023-03-01T01:42:47;0.50;99.90
3713;DHT22;1872;51.406;6.856;2023-03-01T01:45:29;0.50;99.90
3713;DHT22;1872;51.406;6.856;2023-03-01T01:48:00;0.50;99.90
3713;DHT22;1872;51.406;6.856;2023-03-01T01:50:28;0.40;99.90
3713;DHT22;1872;51.406;6.856;2023-03-01T01:53:15;0.40;99.90
3713;DHT22;1872;51.406;6.856;2023-03-01T01:55:45;0.40;99.90
3713;DHT22;1872;51.406;6.856;2023-03-01T01:58:17;0.30;99.90
3713;DHT22;1872;51.406;6.856;2023-03-01T02:00:44;0.30;99.90
3713;DHT22;1872;51.406;6.856;2023-03-01T02:03:12;0.20;99.90
3713;DHT22;1872;51.406;6.856;2023-03-01T02:05:52;0.20;99.90
3713;DHT22;1872;51.406;6.856;2023-03-01T02:08:20;0.20;99.90
3713;DHT22;1872;51.406;6.856;2023-03-01T02:10:48;0.10;99.90
3713;DHT22;1872;51.406;6.856;2023-03-01T02:13:14;0.10;99.90
3713;DHT22;1872;51.406;6.856;2023-03-01T02:15:40;0.00;99.90
3713;DHT22;1872;51.406;6.856;2023-03-01T02:18:07;-0.10;99.90
3713;DHT22;1872;51.406;6.856;2023-03-01T02:21:03;-0.10;99.90
3713;DHT22;1872;51.406;6.856;2023-03-01T02:23:31;-0.10;99.90
3713;DHT22;1872;51.406;6.856;2023-03-01T02:28:57;-0.10;99.90
3713;DHT22;1872;51.406;6.856;2023-03-01T02:31:22;-0.10;99.90
3713;DHT22;1872;51.406;6.856;2023-03-01T02:34:08;-0.10;99.90
3713;DHT22;1872;51.406;6.856;2023-03-01T02:36:40;-0.20;99.90
3713;DHT22;1872;51.406;6.856;2023-03-01T02:39:08;-0.20;99.90
3713;DHT22;1872;51.406;6.856;2023-03-01T02:41:43;-0.20;99.90
3713;DHT22;1872;51.406;6.856;2023-03-01T02:44:09;-0.30;99.90
3713;DHT22;1872;51.406;6.856;2023-03-01T02:46:43;-0.40;99.90
3713;DHT22;1872;51.406;6.856;2023-03-01T02:53:13;-0.40;99.90
3713;DHT22;1872;51.406;6.856;2023-03-01T02:55:11;-0.50;99.90
3713;DHT22;1872;51.406;6.856;2023-03-01T02:57:40;-0.40;99.90
3713;DHT22;1872;51.406;6.856;2023-03-01T03:00:13;-0.50;99.90
3713;DHT22;1872;51.406;6.856;2023-03-01T03:02:45;-0.50;99.90
3713;DHT22;1872;51.406;6.856;2023-03-01T03:05:15;-0.50;99.90
3713;DHT22;1872;51.406;6.856;2023-03-01T03:07:43;-0.50;99.90
3713;DHT22;1872;51.406;6.856;2023-03-01T03:10:13;-0.50;99.90
3713;DHT22;1872;51.406;6.856;2023-03-01T03:12:40;-0.40;99.90
3713;DHT22;1872;51.406;6.856;2023-03-01T03:15:07;-0.40;99.90
3713;DHT22;1872;51.406;6.856;2023-03-01T03:17:41;-0.40;99.90
3713;DHT22;1872;51.406;6.856;2023-03-01T03:20:08;-0.40;99.90
3713;DHT22;1872;51.406;6.856;2023-03-01T03:22:40;-0.30;99.90
3713;DHT22;1872;51.406;6.856;2023-03-01T03:25:07;-0.30;99.90
3713;DHT22;1872;51.406;6.856;2023-03-01T03:27:40;-0.30;99.90
3713;DHT22;1872;51.406;6.856;2023-03-01T03:30:11;-0.30;99.90
3713;DHT22;1872;51.406;6.856;2023-03-01T03:32:42;-0.40;99.90
3713;DHT22;1872;51.406;6.856;2023-03-01T03:35:12;-0.40;99.90
3713;DHT22;1872;51.406;6.856;2023-03-01T03:37:41;-0.40;99.90
3713;DHT22;1872;51.406;6.856;2023-03-01T03:40:28;-0.40;99.90
3713;DHT22;1872;51.406;6.856;2023-03-01T03:42:54;-0.40;99.90
3713;DHT22;1872;51.406;6.856;2023-03-01T03:45:20;-0.40;99.90
3713;DHT22;1872;51.406;6.856;2023-03-01T03:47:46;-0.40;99.90
3713;DHT22;1872;51.406;6.856;2023-03-01T03:50:13;-0.40;99.90
3713;DHT22;1872;51.406;6.856;2023-03-01T03:52:40;-0.40;99.90
3713;DHT22;1872;51.406;6.856;2023-03-01T03:55:08;-0.40;99.90
3713;DHT22;1872;51.406;6.856;2023-03-01T03:57:35;-0.40;99.90
3713;DHT22;1872;51.406;6.856;2023-03-01T04:00:01;-0.40;99.90
3713;DHT22;1872;51.406;6.856;2023-03-01T04:02:30;-0.50;99.90
3713;DHT22;1872;51.406;6.856;2023-03-01T04:04:58;-0.50;99.90
3713;DHT22;1872;51.406;6.856;2023-03-01T04:07:24;-0.40;99.90
3713;DHT22;1872;51.406;6.856;2023-03-01T04:09:49;-0.40;99.90
3713;DHT22;1872;51.406;6.856;2023-03-01T04:12:16;-0.40;99.90
3713;DHT22;1872;51.406;6.856;2023-03-01T04:14:46;-0.40;99.90
3713;DHT22;1872;51.406;6.856;2023-03-01T04:17:11;-0.40;99.90
3713;DHT22;1872;51.406;6.856;2023-03-01T04:19:38;-0.50;99.90
3713;DHT22;1872;51.406;6.856;2023-03-01T04:22:03;-0.50;99.90
3713;DHT22;1872;51.406;6.856;2023-03-01T04:24:35;-0.50;99.90
3713;DHT22;1872;51.406;6.856;2023-03-01T04:27:01;-0.50;99.90
3713;DHT22;1872;51.406;6.856;2023-03-01T04:29:27;-0.50;99.90
3713;DHT22;1872;51.406;6.856;2023-03-01T04:31:52;-0.50;99.90
3713;DHT22;1872;51.406;6.856;2023-03-01T04:34:18;-0.60;99.90
3713;DHT22;1872;51.406;6.856;2023-03-01T04:36:44;-0.60;99.90
3713;DHT22;1872;51.406;6.856;2023-03-01T04:39:10;-0.60;99.90
3713;DHT22;1872;51.406;6.856;2023-03-01T04:41:39;-0.70;99.90
3713;DHT22;1872;51.406;6.856;2023-03-01T04:44:06;-0.70;99.90
3713;DHT22;1872;51.406;6.856;2023-03-01T04:46:32;-0.70;99.90
3713;DHT22;1872;51.406;6.856;2023-03-01T04:48:57;-0.70;99.90
3713;DHT22;1872;51.406;6.856;2023-03-01T04:51:23;-0.70;99.90
3713;DHT22;1872;51.406;6.856;2023-03-01T04:53:50;-0.70;99.90
3713;DHT22;1872;51.406;6.856;2023-03-01T04:56:16;-0.70;99.90
3713;DHT22;1872;51.406;6.856;2023-03-01T04:58:43;-0.70;99.90
3713;DHT22;1872;51.406;6.856;2023-03-01T05:01:12;-0.70;99.90
3713;DHT22;1872;51.406;6.856;2023-03-01T05:03:44;-0.70;99.90
3713;DHT22;1872;51.406;6.856;2023-03-01T05:06:11;-0.80;99.90
3713;DHT22;1872;51.406;6.856;2023-03-01T05:08:38;-0.80;99.90
3713;DHT22;1872;51.406;6.856;2023-03-01T05:11:04;-0.80;99.90
3713;DHT22;1872;51.406;6.856;2023-03-01T05:13:31;-0.80;99.90
3713;DHT22;1872;51.406;6.856;2023-03-01T05:15:59;-0.80;99.90
3713;DHT22;1872;51.406;6.856;2023-03-01T05:18:26;-0.80;99.90
3713;DHT22;1872;51.406;6.856;2023-03-01T05:20:53;-0.80;99.90
3713;DHT22;1872;51.406;6.856;2023-03-01T05:23:22;-0.80;99.90
3713;DHT22;1872;51.406;6.856;2023-03-01T05:25:47;-0.80;99.90
3713;DHT22;1872;51.406;6.856;2023-03-01T05:28:13;-0.80;99.90
3713;DHT22;1872;51.406;6.856;2023-03-01T05:30:39;-0.80;99.90
3713;DHT22;1872;51.406;6.856;2023-03-01T05:33:05;-0.80;99.90
3713;DHT22;1872;51.406;6.856;2023-03-01T05:35:36;-0.90;99.90
3713;DHT22;1872;51.406;6.856;2023-03-01T05:38:02;-0.80;99.90
3713;DHT22;1872;51.406;6.856;2023-03-01T05:40:27;-0.80;99.90
3713;DHT22;1872;51.406;6.856;2023-03-01T05:42:55;-0.90;99.90
3713;DHT22;1872;51.406;6.856;2023-03-01T05:45:23;-0.90;99.90
3713;DHT22;1872;51.406;6.856;2023-03-01T05:47:49;-0.90;99.90
3713;DHT22;1872;51.406;6.856;2023-03-01T05:50:27;-0.90;99.90
3713;DHT22;1872;51.406;6.856;2023-03-01T05:53:01;-0.90;99.90
3713;DHT22;1872;51.406;6.856;2023-03-01T05:55:28;-0.90;99.90
3713;DHT22;1872;51.406;6.856;2023-03-01T05:57:55;-0.90;99.90
3713;DHT22;1872;51.406;6.856;2023-03-01T06:00:22;-0.90;99.90
3713;DHT22;1872;51.406;6.856;2023-03-01T06:02:49;-0.90;99.90
3713;DHT22;1872;51.406;6.856;2023-03-01T06:05:18;-0.90;99.90
3713;DHT22;1872;51.406;6.856;2023-03-01T06:07:44;-1.00;99.90
3713;DHT22;1872;51.406;6.856;2023-03-01T06:10:11;-1.00;99.90
3713;DHT22;1872;51.406;6.856;2023-03-01T06:12:39;-1.10;99.90
3713;DHT22;1872;51.406;6.856;2023-03-01T06:15:07;-1.10;99.90
3713;DHT22;1872;51.406;6.856;2023-03-01T06:17:36;-1.10;99.90
3713;DHT22;1872;51.406;6.856;2023-03-01T06:20:10;-1.10;99.90
3713;DHT22;1872;51.406;6.856;2023-03-01T06:22:37;-1.10;99.90
3713;DHT22;1872;51.406;6.856;2023-03-01T06:25:03;-1.00;99.90
3713;DHT22;1872;51.406;6.856;2023-03-01T06:27:29;-1.00;99.90
3713;DHT22;1872;51.406;6.856;2023-03-01T06:29:56;-1.00;99.90
3713;DHT22;1872;51.406;6.856;2023-03-01T06:32:22;-1.00;99.90
3713;DHT22;1872;51.406;6.856;2023-03-01T06:34:49;-0.90;99.90
3713;DHT22;1872;51.406;6.856;2023-03-01T06:37:14;-0.90;99.90
3713;DHT22;1872;51.406;6.856;2023-03-01T06:39:40;-0.90;99.90
3713;DHT22;1872;51.406;6.856;2023-03-01T06:42:07;-0.90;99.90
3713;DHT22;1872;51.406;6.856;2023-03-01T06:44:33;-0.90;99.90
3713;DHT22;1872;51.406;6.856;2023-03-01T06:47:00;-0.90;99.90
3713;DHT22;1872;51.406;6.856;2023-03-01T06:49:25;-0.90;99.90
3713;DHT22;1872;51.406;6.856;2023-03-01T06:51:51;-0.90;99.90
3713;DHT22;1872;51.406;6.856;2023-03-01T06:54:17;-0.90;99.90
3713;DHT22;1872;51.406;6.856;2023-03-01T06:56:46;-0.80;99.90
3713;DHT22;1872;51.406;6.856;2023-03-01T06:59:11;-0.80;99.90
3713;DHT22;1872;51.406;6.856;2023-03-01T07:01:37;-0.80;99.90
3713;DHT22;1872;51.406;6.856;2023-03-01T07:04:04;-0.70;99.90
3713;DHT22;1872;51.406;6.856;2023-03-01T07:06:29;-0.70;99.90
3713;DHT22;1872;51.406;6.856;2023-03-01T07:08:55;-0.70;99.90
3713;DHT22;1872;51.406;6.856;2023-03-01T07:11:21;-0.60;99.90
3713;DHT22;1872;51.406;6.856;2023-03-01T07:13:47;-0.60;99.90
3713;DHT22;1872;51.406;6.856;2023-03-01T07:16:12;-0.50;99.90
3713;DHT22;1872;51.406;6.856;2023-03-01T07:18:39;-0.50;99.90
3713;DHT22;1872;51.406;6.856;2023-03-01T07:21:07;-0.40;99.90
3713;DHT22;1872;51.406;6.856;2023-03-01T07:23:33;-0.40;99.90
3713;DHT22;1872;51.406;6.856;2023-03-01T07:25:59;-0.30;99.90
3713;DHT22;1872;51.406;6.856;2023-03-01T07:28:26;-0.20;99.90
3713;DHT22;1872;51.406;6.856;2023-03-01T07:30:52;-0.20;99.90
3713;DHT22;1872;51.406;6.856;2023-03-01T07:33:18;-0.20;99.90
3713;DHT22;1872;51.406;6.856;2023-03-01T07:35:44;-0.10;99.90
3713;DHT22;1872;51.406;6.856;2023-03-01T07:38:09;-0.10;99.90
3713;DHT22;1872;51.406;6.856;2023-03-01T07:40:35;0.00;99.90
3713;DHT22;1872;51.406;6.856;2023-03-01T07:43:01;0.00;99.90
3713;DHT22;1872;51.406;6.856;2023-03-01T07:45:28;0.10;99.90
3713;DHT22;1872;51.406;6.856;2023-03-01T07:47:54;0.10;99.90
3713;DHT22;1872;51.406;6.856;2023-03-01T07:50:20;0.20;99.90
3713;DHT22;1872;51.406;6.856;2023-03-01T07:52:47;0.30;99.90
3713;DHT22;1872;51.406;6.856;2023-03-01T07:55:14;0.40;99.90
3713;DHT22;1872;51.406;6.856;2023-03-01T07:57:43;0.50;99.90
3713;DHT22;1872;51.406;6.856;2023-03-01T08:00:11;0.60;99.90
3713;DHT22;1872;51.406;6.856;2023-03-01T08:02:39;0.70;99.90
3713;DHT22;1872;51.406;6.856;2023-03-01T08:05:08;0.90;99.90
3713;DHT22;1872;51.406;6.856;2023-03-01T08:07:34;1.00;99.90
3713;DHT22;1872;51.406;6.856;2023-03-01T08:10:00;1.30;99.90
3713;DHT22;1872;51.406;6.856;2023-03-01T08:12:26;1.40;99.90
3713;DHT22;1872;51.406;6.856;2023-03-01T08:14:53;1.50;99.90
3713;DHT22;1872;51.406;6.856;2023-03-01T08:17:19;1.60;99.90
3713;DHT22;1872;51.406;6.856;2023-03-01T08:19:45;1.70;99.90
3713;DHT22;1872;51.406;6.856;2023-03-01T08:22:11;1.80;99.90
3713;DHT22;1872;51.406;6.856;2023-03-01T08:24:37;1.80;99.90
3713;DHT22;1872;51.406;6.856;2023-03-01T08:27:02;1.80;99.90
3713;DHT22;1872;51.406;6.856;2023-03-01T08:29:30;1.90;99.90
3713;DHT22;1872;51.406;6.856;2023-03-01T08:31:56;2.10;99.90
3713;DHT22;1872;51.406;6.856;2023-03-01T08:34:22;2.10;99.90
3713;DHT22;1872;51.406;6.856;2023-03-01T08:36:48;2.30;99.90
3713;DHT22;1872;51.406;6.856;2023-03-01T08:39:16;2.30;99.90
3713;DHT22;1872;51.406;6.856;2023-03-01T08:41:42;2.40;99.90
3713;DHT22;1872;51.406;6.856;2023-03-01T08:44:10;2.50;99.90
3713;DHT22;1872;51.406;6.856;2023-03-01T08:46:41;2.60;99.90
3713;DHT22;1872;51.406;6.856;2023-03-01T08:49:08;2.70;99.90
3713;DHT22;1872;51.406;6.856;2023-03-01T08:51:35;2.80;99.90
3713;DHT22;1872;51.406;6.856;2023-03-01T08:54:07;2.80;99.90
3713;DHT22;1872;51.406;6.856;2023-03-01T08:56:33;2.90;99.90
3713;DHT22;1872;51.406;6.856;2023-03-01T08:58:59;3.00;99.90
3713;DHT22;1872;51.406;6.856;2023-03-01T09:01:25;3.10;99.90
3713;DHT22;1872;51.406;6.856;2023-03-01T09:03:51;3.20;99.90
3713;DHT22;1872;51.406;6.856;2023-03-01T09:06:16;3.30;99.90
3713;DHT22;1872;51.406;6.856;2023-03-01T09:08:44;3.40;99.90
3713;DHT22;1872;51.406;6.856;2023-03-01T09:11:12;3.50;99.90
3713;DHT22;1872;51.406;6.856;2023-03-01T09:13:39;3.60;99.90
3713;DHT22;1872;51.406;6.856;2023-03-01T09:16:06;3.60;99.90
3713;DHT22;1872;51.406;6.856;2023-03-01T09:18:33;3.70;99.90
3713;DHT22;1872;51.406;6.856;2023-03-01T09:21:08;3.60;99.90
3713;DHT22;1872;51.406;6.856;2023-03-01T09:23:38;3.70;99.90
3713;DHT22;1872;51.406;6.856;2023-03-01T09:26:10;3.70;99.90
3713;DHT22;1872;51.406;6.856;2023-03-01T09:28:37;3.70;99.90
3713;DHT22;1872;51.406;6.856;2023-03-01T09:31:03;3.60;99.90
3713;DHT22;1872;51.406;6.856;2023-03-01T09:33:30;3.60;99.90
3713;DHT22;1872;51.406;6.856;2023-03-01T09:36:04;3.50;99.90
3713;DHT22;1872;51.406;6.856;2023-03-01T09:38:30;3.50;99.90
3713;DHT22;1872;51.406;6.856;2023-03-01T09:40:56;3.40;99.90
3713;DHT22;1872;51.406;6.856;2023-03-01T09:43:48;3.50;99.90
3713;DHT22;1872;51.406;6.856;2023-03-01T09:46:20;3.50;99.90
3713;DHT22;1872;51.406;6.856;2023-03-01T09:49:00;3.40;99.90
3713;DHT22;1872;51.406;6.856;2023-03-01T09:51:34;3.40;99.90
3713;DHT22;1872;51.406;6.856;2023-03-01T09:54:04;3.40;99.90
3713;DHT22;1872;51.406;6.856;2023-03-01T09:56:38;3.40;99.90
3713;DHT22;1872;51.406;6.856;2023-03-01T10:09:43;3.60;99.90
3713;DHT22;1872;51.406;6.856;2023-03-01T10:12:12;3.60;99.90
3713;DHT22;1872;51.406;6.856;2023-03-01T10:17:52;3.60;99.90
3713;DHT22;1872;51.406;6.856;2023-03-01T10:20:26;3.60;99.90
3713;DHT22;1872;51.406;6.856;2023-03-01T10:22:52;3.70;99.90
3713;DHT22;1872;51.406;6.856;2023-03-01T10:25:34;3.70;99.90
3713;DHT22;1872;51.406;6.856;2023-03-01T10:28:25;3.70;99.90
3713;DHT22;1872;51.406;6.856;2023-03-01T10:30:51;3.70;99.90
3713;DHT22;1872;51.406;6.856;2023-03-01T10:33:24;3.70;99.90
3713;DHT22;1872;51.406;6.856;2023-03-01T10:35:51;3.70;99.90
3713;DHT22;1872;51.406;6.856;2023-03-01T10:38:18;3.80;99.90
3713;DHT22;1872;51.406;6.856;2023-03-01T10:41:04;3.80;99.90
3713;DHT22;1872;51.406;6.856;2023-03-01T10:46:31;3.80;99.90
3713;DHT22;1872;51.406;6.856;2023-03-01T10:49:21;3.80;99.90
3713;DHT22;1872;51.406;6.856;2023-03-01T10:51:50;3.90;99.90
3713;DHT22;1872;51.406;6.856;2023-03-01T10:54:39;4.00;99.90
3713;DHT22;1872;51.406;6.856;2023-03-01T10:57:10;4.00;99.90
3713;DHT22;1872;51.406;6.856;2023-03-01T11:00:22;4.10;99.90
3713;DHT22;1872;51.406;6.856;2023-03-01T11:02:50;4.20;99.90
3713;DHT22;1872;51.406;6.856;2023-03-01T11:05:20;4.20;99.90
3713;DHT22;1872;51.406;6.856;2023-03-01T11:07:48;4.30;99.90
3713;DHT22;1872;51.406;6.856;2023-03-01T11:10:19;4.30;99.90
3713;DHT22;1872;51.406;6.856;2023-03-01T11:12:45;4.40;99.90
3713;DHT22;1872;51.406;6.856;2023-03-01T11:15:26;4.40;99.90
3713;DHT22;1872;51.406;6.856;2023-03-01T11:17:56;4.50;99.60
3713;DHT22;1872;51.406;6.856;2023-03-01T11:20:41;4.50;99.80
3713;DHT22;1872;51.406;6.856;2023-03-01T11:23:14;4.50;99.30
3713;DHT22;1872;51.406;6.856;2023-03-01T11:25:43;4.50;99.60
3713;DHT22;1872;51.406;6.856;2023-03-01T11:28:17;4.50;99.60
3713;DHT22;1872;51.406;6.856;2023-03-01T11:31:03;4.60;99.60
3713;DHT22;1872;51.406;6.856;2023-03-01T11:38:53;4.80;99.60
3713;DHT22;1872;51.406;6.856;2023-03-01T11:41:25;4.80;99.30
3713;DHT22;1872;51.406;6.856;2023-03-01T11:43:56;4.80;98.60
3713;DHT22;1872;51.406;6.856;2023-03-01T12:10:33;5.20;97.00
3713;DHT22;1872;51.406;6.856;2023-03-01T12:13:27;5.10;96.70
3713;DHT22;1872;51.406;6.856;2023-03-01T12:19:41;5.10;96.60
3713;DHT22;1872;51.406;6.856;2023-03-01T12:46:59;5.40;96.20
3713;DHT22;1872;51.406;6.856;2023-03-01T12:49:35;5.40;95.70
3713;DHT22;1872;51.406;6.856;2023-03-01T12:53:21;5.40;96.00
3713;DHT22;1872;51.406;6.856;2023-03-01T12:55:35;5.50;95.60
3713;DHT22;1872;51.406;6.856;2023-03-01T13:06:32;5.60;95.00
3713;DHT22;1872;51.406;6.856;2023-03-01T13:11:45;5.70;95.10
3713;DHT22;1872;51.406;6.856;2023-03-01T13:16:47;5.80;95.40
3713;DHT22;1872;51.406;6.856;2023-03-01T13:19:26;5.80;95.40
3713;DHT22;1872;51.406;6.856;2023-03-01T13:21:55;5.90;94.80
3713;DHT22;1872;51.406;6.856;2023-03-01T13:27:18;6.00;94.80
3713;DHT22;1872;51.406;6.856;2023-03-01T13:29:58;6.00;94.90
3713;DHT22;1872;51.406;6.856;2023-03-01T13:32:29;6.00;94.50
3713;DHT22;1872;51.406;6.856;2023-03-01T13:37:29;6.00;94.30
3713;DHT22;1872;51.406;6.856;2023-03-01T13:40:01;6.00;93.90
3713;DHT22;1872;51.406;6.856;2023-03-01T13:44:59;6.00;93.60
3713;DHT22;1872;51.406;6.856;2023-03-01T13:47:27;6.00;93.60
3713;DHT22;1872;51.406;6.856;2023-03-01T13:50:01;6.00;93.40
3713;DHT22;1872;51.406;6.856;2023-03-01T13:52:40;6.00;93.60
3713;DHT22;1872;51.406;6.856;2023-03-01T13:58:01;6.00;93.30
3713;DHT22;1872;51.406;6.856;2023-03-01T14:00:37;6.00;93.60
3713;DHT22;1872;51.406;6.856;2023-03-01T14:03:17;6.10;93.90
3713;DHT22;1872;51.406;6.856;2023-03-01T14:05:58;6.20;93.80
3713;DHT22;1872;51.406;6.856;2023-03-01T14:08:26;6.20;93.80
3713;DHT22;1872;51.406;6.856;2023-03-01T14:19:19;6.30;93.70
3713;DHT22;1872;51.406;6.856;2023-03-01T14:24:40;6.40;93.10
3713;DHT22;1872;51.406;6.856;2023-03-01T14:27:12;6.40;92.40
3713;DHT22;1872;51.406;6.856;2023-03-01T14:29:39;6.40;92.20
3713;DHT22;1872;51.406;6.856;2023-03-01T14:34:46;6.30;92.50
3713;DHT22;1872;51.406;6.856;2023-03-01T14:37:29;6.30;92.10
3713;DHT22;1872;51.406;6.856;2023-03-01T14:39:57;6.30;92.20
3713;DHT22;1872;51.406;6.856;2023-03-01T14:42:26;6.30;92.30
3713;DHT22;1872;51.406;6.856;2023-03-01T14:44:55;6.30;92.20
3713;DHT22;1872;51.406;6.856;2023-03-01T14:47:33;6.20;92.00
3713;DHT22;1872;51.406;6.856;2023-03-01T14:52:42;6.20;91.70
3713;DHT22;1872;51.406;6.856;2023-03-01T14:55:19;6.20;91.90
3713;DHT22;1872;51.406;6.856;2023-03-01T14:57:47;6.20;92.10
3713;DHT22;1872;51.406;6.856;2023-03-01T15:00:22;6.20;92.00
3713;DHT22;1872;51.406;6.856;2023-03-01T15:02:52;6.20;91.70
3713;DHT22;1872;51.406;6.856;2023-03-01T15:05:39;6.20;91.60
3713;DHT22;1872;51.406;6.856;2023-03-01T15:08:05;6.20;91.50
3713;DHT22;1872;51.406;6.856;2023-03-01T15:10:35;6.20;91.60
3713;DHT22;1872;51.406;6.856;2023-03-01T15:13:22;6.20;91.50
3713;DHT22;1872;51.406;6.856;2023-03-01T15:15:50;6.20;91.50
3713;DHT22;1872;51.406;6.856;2023-03-01T15:18:26;6.20;91.60
3713;DHT22;1872;51.406;6.856;2023-03-01T15:23:51;6.20;91.50
3713;DHT22;1872;51.406;6.856;2023-03-01T15:26:27;6.20;91.50
3713;DHT22;1872;51.406;6.856;2023-03-01T15:28:56;6.30;91.60
3713;DHT22;1872;51.406;6.856;2023-03-01T15:31:31;6.20;91.50
3713;DHT22;1872;51.406;6.856;2023-03-01T15:34:23;6.20;91.50
3713;DHT22;1872;51.406;6.856;2023-03-01T15:36:53;6.20;91.50
3713;DHT22;1872;51.406;6.856;2023-03-01T15:39:41;6.20;91.40
3713;DHT22;1872;51.406;6.856;2023-03-01T15:42:36;6.20;91.30
3713;DHT22;1872;51.406;6.856;2023-03-01T15:48:05;6.20;91.50
3713;DHT22;1872;51.406;6.856;2023-03-01T15:50:41;6.20;91.50
3713;DHT22;1872;51.406;6.856;2023-03-01T15:53:13;6.20;91.50
3713;DHT22;1872;51.406;6.856;2023-03-01T15:55:41;6.20;91.50
3713;DHT22;1872;51.406;6.856;2023-03-01T15:58:17;6.20;91.50
3713;DHT22;1872;51.406;6.856;2023-03-01T16:00:44;6.10;91.50
3713;DHT22;1872;51.406;6.856;2023-03-01T16:03:13;6.10;91.50
3713;DHT22;1872;51.406;6.856;2023-03-01T16:05:39;6.10;91.50
3713;DHT22;1872;51.406;6.856;2023-03-01T16:08:06;6.10;91.50
3713;DHT22;1872;51.406;6.856;2023-03-01T16:10:33;6.10;91.50
3713;DHT22;1872;51.406;6.856;2023-03-01T16:12:59;6.10;91.50
3713;DHT22;1872;51.406;6.856;2023-03-01T16:15:32;6.10;91.50
3713;DHT22;1872;51.406;6.856;2023-03-01T16:18:00;6.00;91.40
3713;DHT22;1872;51.406;6.856;2023-03-01T16:20:26;6.00;91.40
3713;DHT22;1872;51.406;6.856;2023-03-01T16:22:52;6.00;91.40
3713;DHT22;1872;51.406;6.856;2023-03-01T16:25:20;6.00;91.40
3713;DHT22;1872;51.406;6.856;2023-03-01T16:27:48;6.00;91.20
3713;DHT22;1872;51.406;6.856;2023-03-01T16:30:16;6.00;91.00
3713;DHT22;1872;51.406;6.856;2023-03-01T16:32:43;5.90;91.00
3713;DHT22;1872;51.406;6.856;2023-03-01T16:35:11;5.90;91.20
3713;DHT22;1872;51.406;6.856;2023-03-01T16:37:38;5.90;91.10
3713;DHT22;1872;51.406;6.856;2023-03-01T16:40:07;5.90;91.20
3713;DHT22;1872;51.406;6.856;2023-03-01T16:42:37;5.90;91.40
3713;DHT22;1872;51.406;6.856;2023-03-01T16:45:03;5.80;91.20
3713;DHT22;1872;51.406;6.856;2023-03-01T16:47:29;5.80;91.10
3713;DHT22;1872;51.406;6.856;2023-03-01T16:49:55;5.80;91.20
3713;DHT22;1872;51.406;6.856;2023-03-01T16:52:22;5.70;91.30
3713;DHT22;1872;51.406;6.856;2023-03-01T16:54:48;5.70;91.20
3713;DHT22;1872;51.406;6.856;2023-03-01T16:57:14;5.70;91.30
3713;DHT22;1872;51.406;6.856;2023-03-01T16:59:40;5.70;91.00
3713;DHT22;1872;51.406;6.856;2023-03-01T17:02:08;5.70;90.70
3713;DHT22;1872;51.406;6.856;2023-03-01T17:04:36;5.60;90.90
3713;DHT22;1872;51.406;6.856;2023-03-01T17:07:02;5.60;90.80
3713;DHT22;1872;51.406;6.856;2023-03-01T17:09:28;5.60;90.90
3713;DHT22;1872;51.406;6.856;2023-03-01T17:11:54;5.50;91.00
3713;DHT22;1872;51.406;6.856;2023-03-01T17:14:20;5.50;91.10
3713;DHT22;1872;51.406;6.856;2023-03-01T17:16:46;5.50;91.20
3713;DHT22;1872;51.406;6.856;2023-03-01T17:19:12;5.40;91.10
3713;DHT22;1872;51.406;6.856;2023-03-01T17:21:43;5.40;91.20
3713;DHT22;1872;51.406;6.856;2023-03-01T17:24:10;5.40;91.20
3713;DHT22;1872;51.406;6.856;2023-03-01T17:26:38;5.30;91.10
3713;DHT22;1872;51.406;6.856;2023-03-01T17:29:04;5.30;91.10
3713;DHT22;1872;51.406;6.856;2023-03-01T17:31:31;5.20;91.10
3713;DHT22;1872;51.406;6.856;2023-03-01T17:33:57;5.20;91.10
3713;DHT22;1872;51.406;6.856;2023-03-01T17:36:23;5.20;91.10
3713;DHT22;1872;51.406;6.856;2023-03-01T17:38:50;5.10;91.10
3713;DHT22;1872;51.406;6.856;2023-03-01T17:41:17;5.10;91.10
3713;DHT22;1872;51.406;6.856;2023-03-01T17:43:44;5.10;91.30
3713;DHT22;1872;51.406;6.856;2023-03-01T17:46:10;5.00;91.40
3713;DHT22;1872;51.406;6.856;2023-03-01T17:48:36;5.00;91.40
3713;DHT22;1872;51.406;6.856;2023-03-01T17:51:09;5.00;91.40
3713;DHT22;1872;51.406;6.856;2023-03-01T17:53:36;4.90;91.50
3713;DHT22;1872;51.406;6.856;2023-03-01T17:56:04;4.90;91.50
3713;DHT22;1872;51.406;6.856;2023-03-01T17:58:30;4.80;91.50
3713;DHT22;1872;51.406;6.856;2023-03-01T18:01:10;4.80;91.60
3713;DHT22;1872;51.406;6.856;2023-03-01T18:03:37;4.80;91.60
3713;DHT22;1872;51.406;6.856;2023-03-01T18:06:17;4.80;91.60
3713;DHT22;1872;51.406;6.856;2023-03-01T18:08:44;4.70;91.60
3713;DHT22;1872;51.406;6.856;2023-03-01T18:11:11;4.70;91.50
3713;DHT22;1872;51.406;6.856;2023-03-01T18:13:37;4.70;91.70
3713;DHT22;1872;51.406;6.856;2023-03-01T18:16:08;4.70;91.70
3713;DHT22;1872;51.406;6.856;2023-03-01T18:18:34;4.70;91.70
3713;DHT22;1872;51.406;6.856;2023-03-01T18:21:01;4.60;91.70
3713;DHT22;1872;51.406;6.856;2023-03-01T18:23:27;4.60;91.80
3713;DHT22;1872;51.406;6.856;2023-03-01T18:25:58;4.60;91.80
3713;DHT22;1872;51.406;6.856;2023-03-01T18:28:25;4.60;91.90
3713;DHT22;1872;51.406;6.856;2023-03-01T18:31:03;4.50;91.90
3713;DHT22;1872;51.406;6.856;2023-03-01T18:33:31;4.50;91.90
3713;DHT22;1872;51.406;6.856;2023-03-01T18:35:56;4.50;92.00